createdAt,value
2022-08-29T00:01:02.139Z,4.32
2022-08-29T00:03:32.167Z,4.28
2022-08-29T00:06:01.610Z,3.80
2022-08-29T00:08:31.003Z,4.30
2022-08-29T00:11:00.590Z,4.18
2022-08-29T00:13:31.456Z,4.20
2022-08-29T00:16:00.870Z,4.22
2022-08-29T00:18:30.555Z,4.18
2022-08-29T00:20:59.922Z,4.30
2022-08-29T00:23:29.305Z,4.60
2022-08-29T00:25:58.878Z,4.30
2022-08-29T00:28:28.228Z,4.95
2022-08-29T00:30:58.913Z,4.47
2022-08-29T00:33:28.725Z,4.90
2022-08-29T00:35:58.202Z,4.68
2022-08-29T00:38:28.518Z,4.90
2022-08-29T00:40:59.686Z,4.93
2022-08-29T00:43:32.549Z,4.75
2022-08-29T00:46:11.877Z,5.10
2022-08-29T00:48:42.564Z,4.70
2022-08-29T00:51:17.996Z,5.00
2022-08-29T00:53:51.300Z,4.57
2022-08-29T00:56:21.647Z,4.70
2022-08-29T00:58:56.231Z,4.28
2022-08-29T01:01:27.731Z,5.10
2022-08-29T01:03:57.284Z,5.15
2022-08-29T01:06:28.592Z,4.80
2022-08-29T01:08:58.456Z,4.65
2022-08-29T01:11:48.479Z,4.80
2022-08-29T01:14:18.948Z,4.70
2022-08-29T01:16:52.441Z,4.65
2022-08-29T01:19:33.488Z,4.55
2022-08-29T01:22:14.760Z,4.53
2022-08-29T01:24:50.866Z,4.30
2022-08-29T01:27:22.782Z,4.65
2022-08-29T01:29:52.102Z,4.07
2022-08-29T01:32:21.654Z,4.55
2022-08-29T01:34:50.895Z,4.40
2022-08-29T01:37:21.263Z,4.22
2022-08-29T01:39:52.316Z,4.13
2022-08-29T01:42:23.507Z,4.82
2022-08-29T01:44:55.377Z,4.45
2022-08-29T01:47:27.338Z,4.47
2022-08-29T01:49:57.384Z,4.07
2022-08-29T01:52:26.728Z,4.43
2022-08-29T01:54:57.419Z,4.50
2022-08-29T01:57:27.045Z,4.13
2022-08-29T01:59:57.220Z,4.10
2022-08-29T02:02:29.451Z,4.50
2022-08-29T02:04:59.050Z,4.40
2022-08-29T02:07:29.522Z,4.47
2022-08-29T02:10:00.435Z,3.90
2022-08-29T02:12:31.715Z,4.18
2022-08-29T02:15:01.504Z,4.22
2022-08-29T02:17:31.118Z,3.90
2022-08-29T02:20:00.390Z,3.90
2022-08-29T02:22:29.684Z,4.25
2022-08-29T02:25:23.635Z,4.43
2022-08-29T02:27:53.180Z,4.50
2022-08-29T02:30:23.391Z,3.90
2022-08-29T02:32:52.692Z,4.20
2022-08-29T02:35:22.653Z,4.10
2022-08-29T02:37:54.017Z,3.72
2022-08-29T02:40:31.913Z,3.83
2022-08-29T02:43:02.586Z,3.88
2022-08-29T02:45:32.192Z,3.90
2022-08-29T02:48:01.736Z,4.00
2022-08-29T02:50:31.588Z,4.10
2022-08-29T02:53:00.937Z,4.00
2022-08-29T02:55:31.679Z,4.20
2022-08-29T02:58:01.407Z,3.67
2022-08-29T03:00:31.114Z,3.92
2022-08-29T03:03:00.521Z,4.00
2022-08-29T03:05:34.916Z,3.70
2022-08-29T03:08:06.891Z,3.92
2022-08-29T03:10:38.858Z,3.90
2022-08-29T03:13:08.251Z,4.25
2022-08-29T03:15:37.789Z,4.25
2022-08-29T03:18:08.120Z,4.13
2022-08-29T03:20:39.144Z,3.97
2022-08-29T03:23:09.002Z,4.45
2022-08-29T03:25:39.940Z,3.70
2022-08-29T03:28:09.450Z,4.00
2022-08-29T03:30:38.792Z,4.10
2022-08-29T03:33:11.602Z,4.10
2022-08-29T03:35:41.617Z,3.90
2022-08-29T03:38:13.073Z,3.78
2022-08-29T03:40:44.972Z,4.57
2022-08-29T03:43:14.254Z,4.10
2022-08-29T03:45:44.002Z,3.92
2022-08-29T03:48:13.759Z,4.13
2022-08-29T03:50:43.706Z,4.00
2022-08-29T03:53:13.334Z,4.00
2022-08-29T03:55:44.072Z,4.43
2022-08-29T03:58:13.926Z,3.70
2022-08-29T04:00:44.090Z,4.15
2022-08-29T04:05:43.444Z,3.95
2022-08-29T04:10:42.150Z,4.03
2022-08-29T04:13:13.711Z,3.97
2022-08-29T04:15:44.128Z,3.90
2022-08-29T04:18:15.479Z,4.25
2022-08-29T04:20:46.292Z,4.35
2022-08-29T04:23:16.862Z,4.53
2022-08-29T04:25:46.314Z,4.28
2022-08-29T04:28:17.830Z,4.90
2022-08-29T04:30:51.715Z,5.10
2022-08-29T04:33:23.798Z,4.93
2022-08-29T04:35:54.551Z,4.60
2022-08-29T04:38:23.851Z,4.28
2022-08-29T04:40:53.154Z,4.50
2022-08-29T04:43:24.169Z,4.68
2022-08-29T04:46:00.722Z,4.88
2022-08-29T04:48:31.078Z,4.70
2022-08-29T04:51:02.697Z,4.60
2022-08-29T04:53:32.354Z,4.68
2022-08-29T04:56:03.750Z,4.60
2022-08-29T04:58:34.988Z,5.20
2022-08-29T05:01:06.694Z,4.65
2022-08-29T05:03:36.292Z,4.80
2022-08-29T05:06:08.455Z,4.60
2022-08-29T05:08:40.741Z,4.75
2022-08-29T05:11:14.610Z,5.10
2022-08-29T05:13:54.162Z,4.88
2022-08-29T05:16:23.585Z,4.78
2022-08-29T05:18:52.967Z,4.53
2022-08-29T05:21:27.693Z,4.68
2022-08-29T05:23:57.814Z,4.50
2022-08-29T05:26:31.336Z,4.70
2022-08-29T05:29:02.019Z,4.30
2022-08-29T05:31:31.665Z,5.18
2022-08-29T05:34:01.013Z,5.47
2022-08-29T05:36:45.855Z,4.88
2022-08-29T05:39:15.088Z,4.32
2022-08-29T05:41:44.316Z,4.00
2022-08-29T05:44:15.220Z,3.95
2022-08-29T05:46:44.519Z,4.32
2022-08-29T05:49:15.204Z,4.20
2022-08-29T05:51:44.841Z,4.15
2022-08-29T05:54:14.082Z,4.20
2022-08-29T05:56:43.311Z,4.13
2022-08-29T05:59:14.245Z,3.90
2022-08-29T06:01:43.742Z,4.00
2022-08-29T06:04:13.027Z,3.70
2022-08-29T06:06:43.424Z,3.58
2022-08-29T06:09:14.197Z,4.15
2022-08-29T06:11:46.910Z,3.58
2022-08-29T06:14:18.705Z,3.80
2022-08-29T06:16:48.198Z,3.20
2022-08-29T06:19:17.532Z,3.85
2022-08-29T06:21:47.444Z,2.80
2022-08-29T06:24:17.376Z,3.15
2022-08-29T06:26:47.021Z,3.33
2022-08-29T06:29:17.933Z,2.83
2022-08-29T06:31:47.164Z,2.78
2022-08-29T06:34:16.489Z,3.10
2022-08-29T06:36:46.013Z,3.20
2022-08-29T06:39:15.309Z,2.78
2022-08-29T06:41:44.706Z,2.78
2022-08-29T06:44:18.871Z,2.67
2022-08-29T06:46:50.800Z,2.40
2022-08-29T06:49:22.034Z,2.40
2022-08-29T06:51:57.417Z,2.67
2022-08-29T06:54:29.763Z,2.42
2022-08-29T06:56:59.913Z,2.70
2022-08-29T06:59:31.862Z,2.67
2022-08-29T07:02:01.198Z,2.22
2022-08-29T07:04:31.068Z,2.28
2022-08-29T07:07:00.319Z,2.58
2022-08-29T07:09:31.069Z,2.83
2022-08-29T07:12:00.557Z,2.33
2022-08-29T07:14:31.238Z,2.63
2022-08-29T07:17:00.777Z,2.50
2022-08-29T07:19:31.544Z,2.20
2022-08-29T07:22:01.150Z,2.30
2022-08-29T07:24:30.548Z,2.30
2022-08-29T07:27:00.018Z,2.58
2022-08-29T07:29:30.847Z,2.30
2022-08-29T07:32:02.167Z,2.08
2022-08-29T07:34:31.410Z,1.80
2022-08-29T07:37:00.674Z,1.90
2022-08-29T07:39:30.221Z,1.90
2022-08-29T07:41:59.791Z,1.80
2022-08-29T07:44:32.198Z,1.50
2022-08-29T07:47:04.517Z,1.80
2022-08-29T07:49:41.129Z,1.50
2022-08-29T07:52:11.394Z,1.80
2022-08-29T07:54:40.781Z,2.00
2022-08-29T07:57:10.043Z,1.63
2022-08-29T07:59:40.965Z,1.58
2022-08-29T08:02:10.311Z,1.65
2022-08-29T08:04:39.959Z,1.50
2022-08-29T08:09:44.111Z,1.35
2022-08-29T08:12:13.666Z,1.35
2022-08-29T08:14:44.346Z,1.40
2022-08-29T08:17:13.592Z,1.30
2022-08-29T08:19:43.139Z,1.65
2022-08-29T08:22:12.459Z,1.65
2022-08-29T08:24:41.693Z,1.77
2022-08-29T08:27:11.201Z,1.60
2022-08-29T08:29:40.459Z,1.50
2022-08-29T08:32:11.141Z,1.73
2022-08-29T08:34:40.608Z,1.70
2022-08-29T08:37:11.310Z,1.50
2022-08-29T08:39:45.584Z,1.50
2022-08-29T08:42:25.624Z,1.15
2022-08-29T08:45:05.858Z,1.40
2022-08-29T08:47:41.501Z,1.52
2022-08-29T08:50:18.248Z,1.20
2022-08-29T08:52:53.940Z,1.20
2022-08-29T08:55:30.496Z,1.20
2022-08-29T08:58:08.068Z,1.27
2022-08-29T09:00:43.492Z,1.10
2022-08-29T09:03:30.309Z,1.08
2022-08-29T09:06:15.824Z,1.00
2022-08-29T09:08:53.083Z,1.10
2022-08-29T09:11:29.989Z,1.30
2022-08-29T09:14:08.464Z,1.15
2022-08-29T09:16:42.679Z,1.77
2022-08-29T09:19:17.225Z,1.33
2022-08-29T09:21:52.039Z,1.30
2022-08-29T09:24:26.226Z,1.40
2022-08-29T09:26:57.196Z,2.35
2022-08-29T09:29:28.902Z,1.45
2022-08-29T09:32:11.862Z,1.20
2022-08-29T09:35:07.524Z,1.70
2022-08-29T09:37:36.197Z,1.30
2022-08-29T09:40:10.768Z,1.50
2022-08-29T09:42:43.690Z,1.30
2022-08-29T09:45:20.722Z,1.30
2022-08-29T09:47:50.214Z,1.48
2022-08-29T09:50:25.507Z,1.45
2022-08-29T09:52:58.698Z,1.45
2022-08-29T09:55:32.896Z,1.50
2022-08-29T09:58:05.857Z,1.65
2022-08-29T10:00:38.245Z,1.40
2022-08-29T10:03:12.162Z,1.88
2022-08-29T10:05:45.713Z,1.40
2022-08-29T10:08:35.096Z,1.27
2022-08-29T10:11:06.878Z,1.48
2022-08-29T10:13:45.089Z,1.35
2022-08-29T10:16:20.485Z,1.42
2022-08-29T10:18:54.005Z,1.30
2022-08-29T10:21:39.158Z,1.20
2022-08-29T10:24:36.627Z,1.40
2022-08-29T10:27:17.003Z,1.67
2022-08-29T10:30:01.980Z,1.60
2022-08-29T10:32:48.155Z,1.30
2022-08-29T10:35:21.862Z,1.30
2022-08-29T10:37:57.614Z,1.20
2022-08-29T10:40:31.585Z,1.50
2022-08-29T10:43:30.296Z,1.50
2022-08-29T10:46:21.792Z,1.42
2022-08-29T10:49:01.072Z,1.40
2022-08-29T10:51:42.313Z,1.40
2022-08-29T10:54:22.627Z,1.60
2022-08-29T10:56:53.309Z,1.50
2022-08-29T10:59:42.647Z,1.38
2022-08-29T11:02:21.556Z,1.85
2022-08-29T11:04:55.257Z,1.70
2022-08-29T11:07:32.117Z,1.83
2022-08-29T11:10:10.882Z,1.73
2022-08-29T11:12:47.176Z,1.23
2022-08-29T11:15:22.256Z,1.20
2022-08-29T11:18:06.323Z,1.08
2022-08-29T11:20:40.941Z,1.25
2022-08-29T11:23:18.359Z,1.30
2022-08-29T11:25:49.268Z,1.92
2022-08-29T11:28:28.512Z,1.65
2022-08-29T11:31:05.986Z,1.30
2022-08-29T11:33:44.316Z,1.40
2022-08-29T11:36:44.688Z,1.50
2022-08-29T11:42:02.530Z,1.77
2022-08-29T11:44:35.541Z,2.17
2022-08-29T11:47:33.907Z,1.60
2022-08-29T11:50:23.600Z,1.35
2022-08-29T11:52:57.634Z,1.52
2022-08-29T11:55:36.206Z,1.73
2022-08-29T11:58:29.180Z,1.55
2022-08-29T12:01:00.138Z,1.75
2022-08-29T12:03:50.274Z,1.33
2022-08-29T12:06:37.902Z,1.30
2022-08-29T12:09:31.538Z,1.15
2022-08-29T12:12:32.582Z,1.30
2022-08-29T12:15:03.312Z,1.33
2022-08-29T12:18:03.386Z,1.38
2022-08-29T12:20:43.279Z,1.38
2022-08-29T12:23:29.997Z,1.40
2022-08-29T12:26:21.507Z,1.60
2022-08-29T12:29:00.333Z,1.52
2022-08-29T12:32:08.581Z,1.40
2022-08-29T12:34:54.461Z,1.50
2022-08-29T12:37:38.503Z,1.10
2022-08-29T12:40:39.538Z,1.58
2022-08-29T12:43:32.271Z,1.08
2022-08-29T12:46:04.136Z,1.10
2022-08-29T12:48:41.330Z,1.58
2022-08-29T12:51:10.911Z,1.27
2022-08-29T12:53:40.214Z,1.40
2022-08-29T12:56:23.594Z,1.88
2022-08-29T12:58:59.530Z,1.33
2022-08-29T13:01:31.951Z,1.33
2022-08-29T13:04:05.559Z,1.33
2022-08-29T13:06:35.563Z,1.83
2022-08-29T13:09:06.183Z,1.63
2022-08-29T13:11:36.054Z,1.45
2022-08-29T13:14:07.999Z,1.70
2022-08-29T13:16:37.981Z,1.58
2022-08-29T13:19:20.754Z,1.50
2022-08-29T13:21:50.262Z,1.58
2022-08-29T13:24:21.846Z,1.52
2022-08-29T13:27:04.874Z,1.60
2022-08-29T13:29:39.564Z,1.60
2022-08-29T13:32:27.551Z,1.70
2022-08-29T13:35:18.783Z,1.67
2022-08-29T13:38:18.038Z,2.15
2022-08-29T13:40:49.387Z,1.73
2022-08-29T13:43:37.566Z,2.40
2022-08-29T13:46:18.116Z,1.92
2022-08-29T13:48:47.489Z,2.03
2022-08-29T13:51:18.711Z,2.20
2022-08-29T13:53:47.965Z,1.95
2022-08-29T13:56:25.438Z,1.90
2022-08-29T13:58:57.223Z,2.08
2022-08-29T14:02:07.403Z,1.88
2022-08-29T14:07:09.718Z,1.95
2022-08-29T14:09:41.721Z,2.17
2022-08-29T14:12:12.588Z,1.80
2022-08-29T14:14:41.996Z,1.40
2022-08-29T14:17:18.166Z,0.98
2022-08-29T14:19:48.363Z,1.33
2022-08-29T14:24:52.865Z,1.35
2022-08-29T14:27:23.228Z,1.60
2022-08-29T14:29:53.168Z,1.40
2022-08-29T14:34:56.605Z,1.30
2022-08-29T14:37:27.930Z,1.45
2022-08-29T14:39:58.175Z,1.38
2022-08-29T14:42:27.752Z,1.40
2022-08-29T14:44:56.994Z,1.67
2022-08-29T14:47:26.491Z,1.67
2022-08-29T14:49:55.850Z,1.67
2022-08-29T14:52:26.524Z,1.50
2022-08-29T14:54:58.891Z,1.50
2022-08-29T14:57:28.238Z,1.45
2022-08-29T14:59:57.543Z,2.05
2022-08-29T15:02:27.145Z,1.52
2022-08-29T15:04:58.508Z,1.50
2022-08-29T15:07:29.410Z,1.77
2022-08-29T15:09:58.719Z,1.48
2022-08-29T15:12:29.098Z,1.80
2022-08-29T15:14:58.842Z,1.60
2022-08-29T15:17:28.745Z,1.60
2022-08-29T15:22:49.013Z,1.52
2022-08-29T15:25:18.415Z,1.60
2022-08-29T15:27:47.842Z,1.80
2022-08-29T15:30:20.953Z,1.58
2022-08-29T15:32:50.693Z,1.77
2022-08-29T15:37:50.824Z,1.30
2022-08-29T15:40:20.808Z,1.40
2022-08-29T15:42:50.228Z,1.70
2022-08-29T15:45:22.731Z,1.40
2022-08-29T15:47:54.199Z,1.52
2022-08-29T15:50:24.684Z,1.50
2022-08-29T15:52:55.632Z,1.40
2022-08-29T15:55:25.438Z,1.30
2022-08-29T15:57:54.951Z,1.30
2022-08-29T16:00:30.071Z,1.55
2022-08-29T16:03:02.722Z,1.50
2022-08-29T16:05:33.471Z,1.65
2022-08-29T16:08:04.829Z,1.50
2022-08-29T16:10:34.729Z,1.60
2022-08-29T16:13:04.482Z,1.45
2022-08-29T16:15:35.188Z,1.50
2022-08-29T16:18:05.813Z,1.35
2022-08-29T16:20:41.376Z,1.35
2022-08-29T16:23:12.639Z,0.95
2022-08-29T16:25:43.080Z,1.33
2022-08-29T16:28:14.031Z,1.60
2022-08-29T16:30:46.168Z,1.48
2022-08-29T16:33:16.387Z,1.38
2022-08-29T16:35:46.419Z,1.30
2022-08-29T16:40:46.963Z,1.30
2022-08-29T16:43:16.252Z,1.40
2022-08-29T16:45:45.681Z,1.35
2022-08-29T16:48:17.777Z,1.70
2022-08-29T16:50:47.729Z,1.60
2022-08-29T16:53:19.363Z,1.30
2022-08-29T16:55:48.754Z,1.40
2022-08-29T16:58:36.077Z,1.73
2022-08-29T17:01:05.766Z,1.20
2022-08-29T17:03:35.733Z,1.42
2022-08-29T17:06:05.825Z,1.60
2022-08-29T17:08:35.347Z,1.27
2022-08-29T17:11:03.704Z,1.50
2022-08-29T17:13:32.322Z,1.20
2022-08-29T17:16:03.015Z,1.20
2022-08-29T17:18:33.107Z,1.20
2022-08-29T17:21:02.450Z,1.40
2022-08-29T17:23:34.635Z,1.27
2022-08-29T17:26:08.619Z,1.27
2022-08-29T17:28:39.598Z,1.58
2022-08-29T17:31:09.748Z,1.45
2022-08-29T17:36:09.704Z,1.23
2022-08-29T17:38:41.915Z,1.23
2022-08-29T17:41:17.568Z,1.23
2022-08-29T17:43:48.474Z,1.27
2022-08-29T17:46:19.634Z,1.20
2022-08-29T17:48:49.541Z,1.40
2022-08-29T17:51:18.768Z,1.80
2022-08-29T17:53:49.564Z,1.60
2022-08-29T17:58:51.152Z,1.48
2022-08-29T18:01:20.732Z,1.67
2022-08-29T18:03:51.229Z,1.60
2022-08-29T18:06:21.701Z,1.60
2022-08-29T18:08:50.912Z,1.40
2022-08-29T18:11:21.698Z,1.60
2022-08-29T18:13:51.588Z,1.20
2022-08-29T18:16:20.908Z,1.63
2022-08-29T18:18:51.611Z,1.65
2022-08-29T18:21:21.364Z,1.60
2022-08-29T18:23:50.985Z,1.83
2022-08-29T18:26:21.660Z,1.77
2022-08-29T18:28:51.166Z,1.38
2022-08-29T18:34:06.168Z,1.20
2022-08-29T18:36:38.162Z,1.38
2022-08-29T18:39:08.477Z,1.73
2022-08-29T18:41:40.008Z,1.80
2022-08-29T18:44:09.770Z,1.55
2022-08-29T18:49:11.727Z,1.50
2022-08-29T18:51:41.642Z,1.60
2022-08-29T18:54:10.983Z,1.63
2022-08-29T18:56:42.417Z,1.65
2022-08-29T18:59:12.493Z,1.58
2022-08-29T19:01:44.637Z,1.30
2022-08-29T19:04:14.361Z,1.50
2022-08-29T19:06:43.913Z,1.40
2022-08-29T19:09:13.176Z,1.73
2022-08-29T19:11:44.081Z,1.40
2022-08-29T19:14:14.133Z,1.77
2022-08-29T19:19:13.713Z,1.50
2022-08-29T19:21:42.982Z,1.42
2022-08-29T19:24:12.479Z,1.35
2022-08-29T19:26:43.564Z,1.30
2022-08-29T19:29:15.669Z,1.45
2022-08-29T19:31:46.361Z,1.85
2022-08-29T19:34:15.633Z,1.77
2022-08-29T19:36:46.908Z,1.48
2022-08-29T19:39:17.018Z,1.23
2022-08-29T19:41:47.779Z,1.30
2022-08-29T19:44:17.303Z,1.50
2022-08-29T19:46:49.346Z,1.17
2022-08-29T19:49:19.393Z,1.23
2022-08-29T19:51:48.691Z,1.35
2022-08-29T19:54:19.604Z,1.35
2022-08-29T19:56:50.501Z,1.52
2022-08-29T19:59:19.930Z,1.20
2022-08-29T20:01:50.122Z,1.15
2022-08-29T20:04:19.565Z,1.20
2022-08-29T20:06:49.109Z,1.42
2022-08-29T20:11:58.192Z,1.20
2022-08-29T20:14:28.432Z,1.27
2022-08-29T20:16:58.036Z,1.15
2022-08-29T20:19:27.764Z,1.33
2022-08-29T20:22:01.956Z,1.23
2022-08-29T20:24:34.232Z,1.38
2022-08-29T20:27:07.556Z,1.10
2022-08-29T20:29:36.956Z,1.33
2022-08-29T20:32:08.827Z,1.70
2022-08-29T20:34:38.490Z,1.15
2022-08-29T20:37:10.113Z,1.95
2022-08-29T20:39:43.245Z,1.50
2022-08-29T20:42:15.150Z,1.50
2022-08-29T20:44:45.627Z,1.30
2022-08-29T20:47:17.995Z,1.40
2022-08-29T20:49:49.446Z,1.30
2022-08-29T20:52:20.914Z,1.48
2022-08-29T20:54:51.519Z,1.38
2022-08-29T20:57:22.668Z,2.10
2022-08-29T20:59:52.604Z,1.20
2022-08-29T21:02:22.321Z,1.30
2022-08-29T21:05:09.009Z,1.20
2022-08-29T21:07:38.539Z,0.98
2022-08-29T21:10:09.165Z,1.30
2022-08-29T21:12:39.914Z,1.08
2022-08-29T21:15:10.174Z,1.23
2022-08-29T21:20:10.105Z,1.20
2022-08-29T21:22:39.656Z,1.20
2022-08-29T21:25:09.490Z,1.13
2022-08-29T21:27:40.238Z,1.23
2022-08-29T21:30:10.851Z,1.33
2022-08-29T21:32:40.174Z,1.13
2022-08-29T21:35:10.028Z,1.10
2022-08-29T21:40:10.864Z,0.95
2022-08-29T21:42:42.270Z,1.05
2022-08-29T21:45:13.786Z,1.10
2022-08-29T21:47:43.341Z,0.95
2022-08-29T21:50:15.179Z,1.02
2022-08-29T21:52:44.718Z,1.17
2022-08-29T21:55:14.260Z,0.90
2022-08-29T21:57:55.123Z,1.30
2022-08-29T22:00:26.820Z,1.00
2022-08-29T22:02:56.381Z,1.08
2022-08-29T22:05:26.012Z,1.02
2022-08-29T22:07:55.291Z,1.00
2022-08-29T22:10:27.135Z,1.08
2022-08-29T22:12:58.631Z,1.60
2022-08-29T22:15:45.295Z,0.95
2022-08-29T22:18:15.275Z,0.70
2022-08-29T22:20:46.623Z,0.80
2022-08-29T22:23:19.846Z,0.95
2022-08-29T22:25:49.547Z,0.77
2022-08-29T22:28:20.734Z,0.88
2022-08-29T22:30:50.406Z,0.73
2022-08-29T22:33:20.258Z,0.75
2022-08-29T22:35:52.190Z,0.75
2022-08-29T22:40:50.823Z,0.60
2022-08-29T22:43:21.516Z,0.80
2022-08-29T22:46:12.862Z,0.60
2022-08-29T22:48:43.259Z,0.73
2022-08-29T22:51:16.217Z,0.60
2022-08-29T22:54:07.280Z,0.70
2022-08-29T22:56:40.554Z,0.82
2022-08-29T22:59:11.309Z,0.80
2022-08-29T23:01:45.188Z,0.98
2022-08-29T23:04:15.204Z,0.73
2022-08-29T23:06:44.925Z,0.80
2022-08-29T23:09:14.261Z,0.93
2022-08-29T23:11:43.874Z,0.95
2022-08-29T23:14:14.899Z,0.95
2022-08-29T23:16:44.616Z,0.90
2022-08-29T23:19:16.050Z,0.60
2022-08-29T23:21:46.022Z,0.77
2022-08-29T23:24:15.401Z,0.80
2022-08-29T23:26:44.994Z,0.70
2022-08-29T23:29:15.799Z,0.70
2022-08-29T23:31:45.419Z,0.60
2022-08-29T23:34:15.435Z,0.73
2022-08-29T23:36:44.854Z,0.70
2022-08-29T23:39:14.739Z,0.60
2022-08-29T23:41:44.060Z,0.60
2022-08-29T23:44:15.598Z,0.70
2022-08-29T23:46:45.692Z,0.70
2022-08-29T23:49:15.046Z,0.70
2022-08-29T23:51:44.444Z,0.52
2022-08-29T23:54:14.067Z,0.60
2022-08-29T23:56:44.184Z,0.50
